createdAt,value
2022-12-18T00:00:18.073Z,9.50
2022-12-18T00:02:46.305Z,9.10
2022-12-18T00:05:14.576Z,8.37
2022-12-18T00:07:42.743Z,8.10
2022-12-18T00:10:11.301Z,8.70
2022-12-18T00:12:45.014Z,8.00
2022-12-18T00:15:13.192Z,8.87
2022-12-18T00:17:41.524Z,8.37
2022-12-18T00:20:11.158Z,8.93
2022-12-18T00:22:39.408Z,7.87
2022-12-18T00:25:08.159Z,9.27
2022-12-18T00:27:36.372Z,8.60
2022-12-18T00:30:07.477Z,8.93
2022-12-18T00:32:35.683Z,9.00
2022-12-18T00:35:04.058Z,8.40
2022-12-18T00:37:32.485Z,9.40
2022-12-18T00:40:00.716Z,7.73
2022-12-18T00:42:46.307Z,8.90
2022-12-18T00:45:15.856Z,7.97
2022-12-18T00:47:44.104Z,8.67
2022-12-18T00:50:12.704Z,9.70
2022-12-18T00:52:40.845Z,8.60
2022-12-18T00:55:09.782Z,8.73
2022-12-18T00:57:38.097Z,8.47
2022-12-18T01:00:08.973Z,8.67
2022-12-18T01:02:38.598Z,8.40
2022-12-18T01:05:07.928Z,9.23
2022-12-18T01:07:36.091Z,8.97
2022-12-18T01:10:05.250Z,8.87
2022-12-18T01:12:33.531Z,8.37
2022-12-18T01:15:01.814Z,9.20
2022-12-18T01:17:30.170Z,9.77
2022-12-18T01:19:59.658Z,8.97
2022-12-18T01:22:27.802Z,8.70
2022-12-18T01:24:56.006Z,9.37
2022-12-18T01:27:24.240Z,8.80
2022-12-18T01:29:52.409Z,8.97
2022-12-18T01:32:20.759Z,8.57
2022-12-18T01:34:48.921Z,9.20
2022-12-18T01:37:18.456Z,8.33
2022-12-18T01:39:46.628Z,10.20
2022-12-18T01:42:16.940Z,8.93
2022-12-18T01:45:07.904Z,9.10
2022-12-18T01:47:40.474Z,9.23
2022-12-18T01:50:12.283Z,9.27
2022-12-18T01:52:44.293Z,8.60
2022-12-18T01:55:13.984Z,8.93
2022-12-18T01:57:43.296Z,8.53
2022-12-18T02:00:14.517Z,8.90
2022-12-18T02:02:43.709Z,9.43
2022-12-18T02:05:13.577Z,10.10
2022-12-18T02:07:50.203Z,9.10
2022-12-18T02:10:26.255Z,8.93
2022-12-18T02:13:03.138Z,9.50
2022-12-18T02:15:40.236Z,10.30
2022-12-18T02:18:12.703Z,8.90
2022-12-18T02:20:49.130Z,9.90
2022-12-18T02:23:36.925Z,9.30
2022-12-18T02:26:16.375Z,8.10
2022-12-18T02:28:48.812Z,8.83
2022-12-18T02:31:21.739Z,8.43
2022-12-18T02:33:52.261Z,9.33
2022-12-18T02:36:22.569Z,8.90
2022-12-18T02:38:52.506Z,9.00
2022-12-18T02:41:25.138Z,10.07
2022-12-18T02:43:57.504Z,8.87
2022-12-18T02:46:31.909Z,9.83
2022-12-18T02:49:08.533Z,8.60
2022-12-18T02:51:47.560Z,8.10
2022-12-18T02:54:26.067Z,8.77
2022-12-18T02:56:59.714Z,8.67
2022-12-18T02:59:36.096Z,8.87
2022-12-18T06:43:46.114Z,10.30
2022-12-18T06:46:34.667Z,10.17
2022-12-18T06:49:11.617Z,10.20
2022-12-18T06:51:49.323Z,10.80
2022-12-18T06:54:17.846Z,10.20
2022-12-18T06:56:49.215Z,10.50
2022-12-18T06:59:19.787Z,10.30
2022-12-18T07:01:50.654Z,10.13
2022-12-18T07:04:21.256Z,11.83
2022-12-18T07:06:49.510Z,9.90
2022-12-18T07:09:19.876Z,11.27
2022-12-18T07:11:49.181Z,9.83
2022-12-18T07:14:20.146Z,9.80
2022-12-18T07:16:49.760Z,10.80
2022-12-18T07:19:19.216Z,10.43
2022-12-18T07:21:57.456Z,9.43
2022-12-18T07:24:35.820Z,10.50
2022-12-18T07:27:04.533Z,9.87
2022-12-18T07:29:35.311Z,11.63
2022-12-18T07:32:04.036Z,10.53
2022-12-18T07:34:41.559Z,11.37
2022-12-18T07:37:20.803Z,8.53
2022-12-18T07:39:53.213Z,10.60
2022-12-18T07:42:32.531Z,10.60
2022-12-18T07:45:02.543Z,10.57
2022-12-18T07:47:37.433Z,11.17
2022-12-18T07:50:07.912Z,11.43
2022-12-18T07:52:42.018Z,11.07
2022-12-18T07:55:12.601Z,10.87
2022-12-18T07:57:50.511Z,10.83
2022-12-18T08:00:25.068Z,11.30
2022-12-18T08:03:01.736Z,9.60
2022-12-18T08:05:30.458Z,10.37
2022-12-18T08:08:02.825Z,10.70
2022-12-18T08:10:37.201Z,10.30
2022-12-18T08:13:12.479Z,9.80
2022-12-18T08:15:48.378Z,10.70
2022-12-18T08:18:16.822Z,10.20
2022-12-18T08:20:47.351Z,10.70
2022-12-18T08:23:21.963Z,9.73
2022-12-18T08:25:50.882Z,11.00
2022-12-18T08:28:22.114Z,10.43
2022-12-18T08:30:55.940Z,11.20
2022-12-18T08:33:25.862Z,11.13
2022-12-18T08:35:54.268Z,10.97
2022-12-18T08:38:24.855Z,11.67
2022-12-18T08:41:00.233Z,11.97
2022-12-18T08:43:47.239Z,10.63
2022-12-18T08:46:22.281Z,10.40
2022-12-18T08:49:00.770Z,11.27
2022-12-18T08:51:30.338Z,11.10
2022-12-18T08:54:00.322Z,10.90
2022-12-18T08:56:30.867Z,10.80
2022-12-18T08:58:59.830Z,10.67
2022-12-18T09:01:29.998Z,10.90
2022-12-18T09:03:59.072Z,10.30
2022-12-18T09:06:30.527Z,10.77
2022-12-18T09:08:59.985Z,10.47
2022-12-18T09:11:30.409Z,10.20
2022-12-18T09:13:59.930Z,10.30
2022-12-18T09:16:32.257Z,10.00
2022-12-18T09:19:03.816Z,9.70
2022-12-18T09:21:35.957Z,10.40
2022-12-18T09:24:09.075Z,10.20
2022-12-18T09:26:40.629Z,10.83
2022-12-18T09:29:11.737Z,10.37
2022-12-18T09:31:42.528Z,11.70
2022-12-18T09:34:10.987Z,11.07
2022-12-18T09:36:41.109Z,10.10
2022-12-18T09:39:09.667Z,9.07
2022-12-18T09:41:54.596Z,10.30
2022-12-18T09:44:27.201Z,10.10
2022-12-18T09:47:10.567Z,9.90
2022-12-18T09:49:44.608Z,9.63
2022-12-18T09:52:17.835Z,10.87
2022-12-18T09:54:52.201Z,10.10
2022-12-18T09:57:27.564Z,10.87
2022-12-18T10:00:01.677Z,10.77
2022-12-18T10:02:36.814Z,11.03
2022-12-18T10:05:10.298Z,10.07
2022-12-18T10:08:03.109Z,10.30
2022-12-18T10:10:39.990Z,10.47
2022-12-18T10:13:17.525Z,10.50
2022-12-18T10:15:59.491Z,10.13
2022-12-18T10:18:40.268Z,10.27
2022-12-18T10:21:15.723Z,10.23
2022-12-18T10:23:54.896Z,9.57
2022-12-18T10:26:24.413Z,10.63
2022-12-18T10:29:03.672Z,10.23
2022-12-18T10:31:34.899Z,11.57
2022-12-18T10:34:05.676Z,10.40
2022-12-18T10:36:34.136Z,10.37
2022-12-18T10:39:19.769Z,11.10
2022-12-18T10:41:50.649Z,10.20
2022-12-18T10:44:21.334Z,10.50
2022-12-18T10:46:56.937Z,10.23
2022-12-18T10:49:29.795Z,11.53
2022-12-18T10:52:19.545Z,10.93
2022-12-18T10:54:52.473Z,9.80
2022-12-18T10:57:34.653Z,10.07
2022-12-18T11:00:25.436Z,10.90
2022-12-18T11:02:54.508Z,10.53
2022-12-18T11:05:33.362Z,10.77
2022-12-18T11:08:02.930Z,10.90
2022-12-18T11:10:34.941Z,9.80
2022-12-18T11:13:20.785Z,10.20
2022-12-18T11:15:53.457Z,10.30
2022-12-18T11:18:27.067Z,10.03
2022-12-18T11:21:01.703Z,9.77
2022-12-18T11:23:36.761Z,11.30
2022-12-18T11:26:07.224Z,10.10
2022-12-18T11:28:41.499Z,11.47
2022-12-18T11:31:27.086Z,10.43
2022-12-18T11:34:30.652Z,9.90
2022-12-18T11:37:05.770Z,10.33
2022-12-18T11:39:40.055Z,10.43
2022-12-18T11:42:16.385Z,11.10
2022-12-18T11:44:50.017Z,10.53
2022-12-18T11:47:29.385Z,10.53
2022-12-18T11:50:05.770Z,10.30
2022-12-18T11:52:40.727Z,11.00
2022-12-18T11:55:21.979Z,10.20
2022-12-18T11:58:02.894Z,10.90
2022-12-18T12:00:49.415Z,11.00
2022-12-18T12:03:49.913Z,10.40
2022-12-18T12:06:27.177Z,11.47
2022-12-18T12:09:04.567Z,12.30
2022-12-18T12:11:44.898Z,10.67
2022-12-18T12:14:29.097Z,10.43
2022-12-18T12:17:04.598Z,9.60
2022-12-18T12:19:40.873Z,11.40
2022-12-18T12:22:18.466Z,10.47
2022-12-18T12:25:16.309Z,11.03
2022-12-18T12:27:53.602Z,11.30
2022-12-18T12:30:24.865Z,12.43
2022-12-18T12:33:07.748Z,11.37
2022-12-18T12:35:48.768Z,12.13
2022-12-18T12:38:27.379Z,10.87
2022-12-18T12:41:03.831Z,12.03
2022-12-18T12:43:43.341Z,12.03
2022-12-18T12:46:22.404Z,12.90
2022-12-18T12:48:54.870Z,11.60
2022-12-18T12:51:27.237Z,11.53
2022-12-18T12:53:58.432Z,11.50
2022-12-18T12:56:43.230Z,11.60
2022-12-18T12:59:21.140Z,12.00
2022-12-18T13:01:56.824Z,11.23
2022-12-18T13:04:34.803Z,12.23
2022-12-18T13:07:18.252Z,10.73
2022-12-18T13:13:09.171Z,11.50
2022-12-18T13:13:45.017Z,11.33
2022-12-18T13:15:44.114Z,12.73
2022-12-18T13:18:45.007Z,11.70
2022-12-18T13:21:29.475Z,12.23
2022-12-18T13:24:23.186Z,12.60
2022-12-18T13:26:57.686Z,12.30
2022-12-18T13:29:55.601Z,12.40
2022-12-18T13:32:25.890Z,12.70
2022-12-18T13:35:37.530Z,12.60
2022-12-18T13:38:23.404Z,10.97
2022-12-18T13:41:01.292Z,11.83
2022-12-18T13:43:36.504Z,11.60
2022-12-18T13:46:21.818Z,12.80
2022-12-18T13:49:03.846Z,12.83
2022-12-18T13:51:35.559Z,13.03
2022-12-18T13:54:13.125Z,12.80
2022-12-18T13:56:46.850Z,13.43
2022-12-18T13:59:24.279Z,14.20
2022-12-18T14:01:58.947Z,13.77
2022-12-18T14:04:29.562Z,13.10
2022-12-18T14:07:04.888Z,12.30
2022-12-18T14:09:38.918Z,14.20
2022-12-18T14:12:37.333Z,12.67
2022-12-18T14:15:22.773Z,12.07
2022-12-18T14:17:54.808Z,13.43
2022-12-18T14:20:31.482Z,14.37
2022-12-18T14:23:01.998Z,12.77
2022-12-18T14:25:31.511Z,13.03
2022-12-18T14:28:17.853Z,14.00
2022-12-18T14:30:55.612Z,13.07
2022-12-18T14:33:31.389Z,12.53
2022-12-18T14:36:01.836Z,14.23
2022-12-18T14:38:32.561Z,13.67
2022-12-18T14:41:02.548Z,13.23
2022-12-18T14:43:38.641Z,13.50
2022-12-18T14:46:26.795Z,13.93
2022-12-18T14:48:58.282Z,12.97
2022-12-18T14:51:30.016Z,12.67
2022-12-18T14:54:01.703Z,14.10
2022-12-18T14:56:31.742Z,14.63
2022-12-18T14:59:02.780Z,14.90
2022-12-18T15:01:35.044Z,13.40
2022-12-18T15:04:07.858Z,12.87
2022-12-18T15:06:38.461Z,13.50
2022-12-18T15:09:23.787Z,14.80
2022-12-18T15:11:57.839Z,14.27
2022-12-18T15:14:41.073Z,13.87
2022-12-18T15:17:18.767Z,13.10
2022-12-18T15:19:50.185Z,13.47
2022-12-18T15:22:23.363Z,14.53
2022-12-18T15:24:54.627Z,13.33
2022-12-18T15:27:28.026Z,14.13
2022-12-18T15:30:20.367Z,12.90
2022-12-18T15:33:25.650Z,13.03
2022-12-18T15:36:00.248Z,13.47
2022-12-18T15:38:35.425Z,13.20
2022-12-18T15:41:04.506Z,13.17
2022-12-18T15:43:34.793Z,14.00
2022-12-18T15:46:05.849Z,14.10
2022-12-18T15:48:41.908Z,13.20
2022-12-18T15:51:16.784Z,14.47
2022-12-18T15:53:47.197Z,14.63
2022-12-18T15:56:38.444Z,15.50
2022-12-18T15:59:12.942Z,13.87
2022-12-18T16:01:42.829Z,14.30
2022-12-18T16:04:14.843Z,14.90
2022-12-18T16:07:13.903Z,14.10
2022-12-18T16:09:39.590Z,14.17
2022-12-18T16:12:22.699Z,14.30
2022-12-18T16:14:58.060Z,15.60
2022-12-18T16:17:29.573Z,14.17
2022-12-18T16:20:00.432Z,15.23
2022-12-18T16:22:36.263Z,14.33
2022-12-18T16:25:06.265Z,13.60
2022-12-18T16:27:34.627Z,15.60
2022-12-18T16:30:03.036Z,14.63
2022-12-18T16:32:33.798Z,14.87
2022-12-18T16:35:10.946Z,16.23
2022-12-18T16:37:47.706Z,15.60
2022-12-18T16:40:18.010Z,15.80
2022-12-18T16:42:47.833Z,15.57
2022-12-18T16:45:19.395Z,14.77
2022-12-18T16:47:48.150Z,15.43
2022-12-18T16:50:16.759Z,16.40
2022-12-18T16:52:47.554Z,17.03
2022-12-18T16:55:22.822Z,15.60
2022-12-18T16:57:52.190Z,14.13
2022-12-18T17:00:21.192Z,15.10
2022-12-18T17:02:49.739Z,14.70
2022-12-18T17:05:20.398Z,16.90
2022-12-18T17:07:57.046Z,17.30
2022-12-18T17:10:25.273Z,17.20
2022-12-18T17:12:56.012Z,16.87
2022-12-18T17:15:26.443Z,16.77
2022-12-18T17:17:54.920Z,15.33
2022-12-18T17:20:25.922Z,16.40
2022-12-18T17:23:00.742Z,16.60
2022-12-18T17:25:34.468Z,17.80
2022-12-18T17:28:02.890Z,15.30
2022-12-18T17:30:31.229Z,17.37
2022-12-18T17:32:59.496Z,16.73
2022-12-18T17:35:27.802Z,15.83
2022-12-18T17:37:58.465Z,18.00
2022-12-18T17:40:26.793Z,16.83
2022-12-18T17:42:55.279Z,16.03
2022-12-18T17:45:23.588Z,17.50
2022-12-18T17:47:56.787Z,14.80
2022-12-18T17:50:28.052Z,16.93
2022-12-18T17:52:58.780Z,16.50
2022-12-18T17:55:29.163Z,17.43
2022-12-18T17:57:57.531Z,17.87
2022-12-18T18:00:28.028Z,18.10
2022-12-18T18:02:56.587Z,17.77
2022-12-18T18:05:29.145Z,18.33
2022-12-18T18:07:58.918Z,18.57
2022-12-18T18:10:29.084Z,17.33
2022-12-18T18:13:20.211Z,16.90
2022-12-18T18:15:56.919Z,18.00
2022-12-18T18:18:25.942Z,17.47
2022-12-18T18:20:54.495Z,18.00
2022-12-18T18:23:28.819Z,16.27
2022-12-18T18:25:57.222Z,16.87
2022-12-18T18:28:25.752Z,17.40
2022-12-18T18:30:54.230Z,17.80
2022-12-18T18:33:22.779Z,18.40
2022-12-18T18:35:54.733Z,16.90
2022-12-18T18:38:25.823Z,16.97
2022-12-18T18:41:00.303Z,17.90
2022-12-18T18:43:33.632Z,17.80
2022-12-18T18:46:04.119Z,16.30
2022-12-18T18:48:37.377Z,18.53
2022-12-18T18:51:21.225Z,18.30
2022-12-18T18:53:55.840Z,18.60
2022-12-18T18:59:17.913Z,17.80
2022-12-18T19:01:47.431Z,19.17
2022-12-18T19:04:17.117Z,17.60
2022-12-18T19:06:47.780Z,17.87
2022-12-18T19:09:18.496Z,16.80
2022-12-18T19:12:04.517Z,18.83
2022-12-18T19:14:34.164Z,17.70
2022-12-18T19:17:29.833Z,17.33
2022-12-18T19:20:10.466Z,17.97
2022-12-18T19:22:40.971Z,18.13
2022-12-18T19:25:12.168Z,16.70
2022-12-18T19:27:42.730Z,17.77
2022-12-18T19:30:12.794Z,17.90
2022-12-18T19:32:44.409Z,18.20
2022-12-18T19:35:14.935Z,17.57
2022-12-18T19:37:49.649Z,16.10
2022-12-18T19:40:19.721Z,18.97
2022-12-18T19:42:48.156Z,17.87
2022-12-18T19:45:16.559Z,18.53
2022-12-18T19:47:58.554Z,17.27
2022-12-18T19:50:32.307Z,17.57
2022-12-18T19:53:04.410Z,17.50
2022-12-18T19:55:43.347Z,18.07
2022-12-18T19:58:15.377Z,17.87
2022-12-18T20:00:44.704Z,16.07
2022-12-18T20:03:25.190Z,17.13
2022-12-18T20:06:08.291Z,16.30
2022-12-18T20:08:38.835Z,18.83
2022-12-18T20:11:09.007Z,17.30
2022-12-18T20:13:38.887Z,18.57
2022-12-18T20:16:08.196Z,18.10
2022-12-18T20:18:36.587Z,16.23
2022-12-18T20:21:09.490Z,16.20
2022-12-18T20:23:42.456Z,16.97
2022-12-18T20:26:12.937Z,18.33
2022-12-18T20:28:42.285Z,18.83
2022-12-18T20:31:13.345Z,16.80
2022-12-18T20:33:50.040Z,17.70
2022-12-18T20:36:23.593Z,17.70
2022-12-18T20:38:58.076Z,16.40
2022-12-18T20:41:35.200Z,17.10
2022-12-18T20:44:07.308Z,18.10
2022-12-18T20:46:54.365Z,18.37
2022-12-18T20:49:22.829Z,16.63
2022-12-18T20:51:53.504Z,18.13
2022-12-18T20:54:22.507Z,18.13
2022-12-18T20:56:54.648Z,18.80
2022-12-18T20:59:25.156Z,18.30
2022-12-18T21:01:56.442Z,17.67
2022-12-18T21:04:25.225Z,19.20
2022-12-18T21:07:02.135Z,17.63
2022-12-18T21:09:37.587Z,17.10
2022-12-18T21:12:35.149Z,17.43
2022-12-18T21:15:12.290Z,17.47
2022-12-18T21:17:44.482Z,18.70
2022-12-18T21:20:17.900Z,18.43
2022-12-18T21:22:49.443Z,16.20
2022-12-18T21:25:20.021Z,19.00
2022-12-18T21:27:49.854Z,19.33
2022-12-18T21:30:19.359Z,19.00
2022-12-18T21:32:51.130Z,19.07
2022-12-18T21:35:20.694Z,19.53
2022-12-18T21:37:50.595Z,17.70
2022-12-18T21:40:20.123Z,18.80
2022-12-18T21:43:09.991Z,18.73
2022-12-18T21:45:39.594Z,19.13
2022-12-18T21:48:08.979Z,18.10
2022-12-18T21:50:37.276Z,18.20
2022-12-18T21:53:11.681Z,19.00
2022-12-18T21:55:41.081Z,19.20
2022-12-18T21:58:11.999Z,18.27
2022-12-18T22:00:46.963Z,19.63
2022-12-18T22:03:19.358Z,20.23
2022-12-18T22:05:49.384Z,18.67
2022-12-18T22:08:28.642Z,20.17
2022-12-18T22:10:59.129Z,19.10
2022-12-18T22:13:37.968Z,19.60
2022-12-18T22:16:12.465Z,18.00
2022-12-18T22:18:53.750Z,19.17
2022-12-18T22:21:29.407Z,19.00
2022-12-18T22:24:00.806Z,19.40
2022-12-18T22:26:39.554Z,19.60
2022-12-18T22:29:35.949Z,18.40
2022-12-18T22:32:05.619Z,18.17
2022-12-18T22:34:36.890Z,19.63
2022-12-18T22:37:08.540Z,18.93
2022-12-18T22:39:36.774Z,19.97
2022-12-18T22:42:10.235Z,20.57
2022-12-18T22:44:39.849Z,19.30
2022-12-18T22:47:08.202Z,20.63
2022-12-18T22:49:37.094Z,19.77
2022-12-18T22:52:07.268Z,19.80
2022-12-18T22:54:35.859Z,19.50
2022-12-18T22:57:05.260Z,18.57
2022-12-18T22:59:33.541Z,19.27
2022-12-18T23:02:04.408Z,18.93
2022-12-18T23:04:37.719Z,19.20
2022-12-18T23:07:06.644Z,18.97
2022-12-18T23:09:35.240Z,21.60
2022-12-18T23:12:04.391Z,20.70
2022-12-18T23:14:34.770Z,19.80
2022-12-18T23:17:04.407Z,18.63
2022-12-18T23:19:32.735Z,20.57
2022-12-18T23:22:02.935Z,19.63
2022-12-18T23:24:33.470Z,19.73
2022-12-18T23:27:04.851Z,20.23
2022-12-18T23:29:38.975Z,20.07
2022-12-18T23:32:10.756Z,21.00
2022-12-18T23:34:39.135Z,19.57
2022-12-18T23:37:07.355Z,19.80
2022-12-18T23:39:35.689Z,19.93
2022-12-18T23:42:04.093Z,19.67
2022-12-18T23:44:32.340Z,19.97
2022-12-18T23:47:00.753Z,19.60
2022-12-18T23:49:30.342Z,20.93
2022-12-18T23:51:58.794Z,19.80
2022-12-18T23:54:33.761Z,19.10
2022-12-18T23:57:05.303Z,19.53
2022-12-18T23:59:33.510Z,20.20
